sensor_id;sensor_type;location;lat;lon;timestamp;temperature;humidity
69189;DHT22;56302;52.322;5.926;2023-01-10T00:00:45;3.80;99.90
69189;DHT22;56302;52.322;5.926;2023-01-10T00:03:11;3.80;99.90
69189;DHT22;56302;52.322;5.926;2023-01-10T00:05:38;3.90;99.90
69189;DHT22;56302;52.322;5.926;2023-01-10T00:08:04;4.00;99.90
69189;DHT22;56302;52.322;5.926;2023-01-10T00:10:31;4.00;99.90
69189;DHT22;56302;52.322;5.926;2023-01-10T00:12:57;4.10;99.90
69189;DHT22;56302;52.322;5.926;2023-01-10T00:15:42;4.10;99.90
69189;DHT22;56302;52.322;5.926;2023-01-10T00:18:07;4.20;99.90
69189;DHT22;56302;52.322;5.926;2023-01-10T00:20:33;4.20;99.90
69189;DHT22;56302;52.322;5.926;2023-01-10T00:22:59;4.20;99.90
69189;DHT22;56302;52.322;5.926;2023-01-10T00:25:25;4.30;99.90
69189;DHT22;56302;52.322;5.926;2023-01-10T00:27:53;4.30;99.90
69189;DHT22;56302;52.322;5.926;2023-01-10T00:30:38;4.30;99.90
69189;DHT22;56302;52.322;5.926;2023-01-10T00:33:04;4.30;99.90
69189;DHT22;56302;52.322;5.926;2023-01-10T00:35:30;4.30;99.90
69189;DHT22;56302;52.322;5.926;2023-01-10T00:37:55;4.30;99.90
69189;DHT22;56302;52.322;5.926;2023-01-10T00:40:30;4.30;99.90
69189;DHT22;56302;52.322;5.926;2023-01-10T00:42:56;4.40;99.90
69189;DHT22;56302;52.322;5.926;2023-01-10T00:45:40;4.40;99.90
69189;DHT22;56302;52.322;5.926;2023-01-10T00:48:05;4.40;99.90
69189;DHT22;56302;52.322;5.926;2023-01-10T00:50:31;4.40;99.90
69189;DHT22;56302;52.322;5.926;2023-01-10T00:52:56;4.50;99.90
69189;DHT22;56302;52.322;5.926;2023-01-10T00:55:22;4.40;99.90
69189;DHT22;56302;52.322;5.926;2023-01-10T00:57:47;4.50;99.90
69189;DHT22;56302;52.322;5.926;2023-01-10T01:00:13;4.50;99.90
69189;DHT22;56302;52.322;5.926;2023-01-10T01:02:39;4.50;99.90
69189;DHT22;56302;52.322;5.926;2023-01-10T01:05:05;4.50;99.90
69189;DHT22;56302;52.322;5.926;2023-01-10T01:07:30;4.40;99.90
69189;DHT22;56302;52.322;5.926;2023-01-10T01:09:56;4.40;99.90
69189;DHT22;56302;52.322;5.926;2023-01-10T01:12:40;4.40;99.90
69189;DHT22;56302;52.322;5.926;2023-01-10T01:15:06;4.30;99.90
69189;DHT22;56302;52.322;5.926;2023-01-10T01:17:32;4.30;99.90
69189;DHT22;56302;52.322;5.926;2023-01-10T01:19:57;4.30;99.90
69189;DHT22;56302;52.322;5.926;2023-01-10T01:22:23;4.30;99.90
69189;DHT22;56302;52.322;5.926;2023-01-10T01:24:48;4.30;99.90
69189;DHT22;56302;52.322;5.926;2023-01-10T01:27:14;4.30;99.90
69189;DHT22;56302;52.322;5.926;2023-01-10T01:29:39;4.30;99.90
69189;DHT22;56302;52.322;5.926;2023-01-10T01:32:05;4.30;99.90
69189;DHT22;56302;52.322;5.926;2023-01-10T01:34:30;4.30;99.90
69189;DHT22;56302;52.322;5.926;2023-01-10T01:36:56;4.30;99.90
69189;DHT22;56302;52.322;5.926;2023-01-10T01:39:22;4.30;99.90
69189;DHT22;56302;52.322;5.926;2023-01-10T01:41:48;4.30;99.90
69189;DHT22;56302;52.322;5.926;2023-01-10T01:44:23;4.30;99.90
69189;DHT22;56302;52.322;5.926;2023-01-10T01:46:59;4.40;99.90
69189;DHT22;56302;52.322;5.926;2023-01-10T01:49:26;4.40;99.90
69189;DHT22;56302;52.322;5.926;2023-01-10T01:51:58;4.50;99.90
69189;DHT22;56302;52.322;5.926;2023-01-10T01:54:26;4.50;99.90
69189;DHT22;56302;52.322;5.926;2023-01-10T01:56:59;4.50;99.90
69189;DHT22;56302;52.322;5.926;2023-01-10T01:59:35;4.60;99.90
69189;DHT22;56302;52.322;5.926;2023-01-10T02:02:09;4.60;99.90
69189;DHT22;56302;52.322;5.926;2023-01-10T02:04:43;4.60;99.90
69189;DHT22;56302;52.322;5.926;2023-01-10T02:07:10;4.60;99.90
69189;DHT22;56302;52.322;5.926;2023-01-10T02:09:55;4.70;99.90
69189;DHT22;56302;52.322;5.926;2023-01-10T02:12:23;4.70;99.90
69189;DHT22;56302;52.322;5.926;2023-01-10T02:14:51;4.70;99.90
69189;DHT22;56302;52.322;5.926;2023-01-10T02:17:17;4.70;99.90
69189;DHT22;56302;52.322;5.926;2023-01-10T02:19:51;4.70;99.90
69189;DHT22;56302;52.322;5.926;2023-01-10T02:39:29;4.80;99.90
69189;DHT22;56302;52.322;5.926;2023-01-10T02:41:58;4.80;99.90
69189;DHT22;56302;52.322;5.926;2023-01-10T02:44:30;4.80;99.90
69189;DHT22;56302;52.322;5.926;2023-01-10T02:46:58;4.80;99.90
69189;DHT22;56302;52.322;5.926;2023-01-10T02:49:26;4.80;99.90
69189;DHT22;56302;52.322;5.926;2023-01-10T02:51:52;4.80;99.90
69189;DHT22;56302;52.322;5.926;2023-01-10T02:54:21;4.80;99.90
69189;DHT22;56302;52.322;5.926;2023-01-10T03:10:41;4.80;99.90
69189;DHT22;56302;52.322;5.926;2023-01-10T03:14:01;4.80;99.90
69189;DHT22;56302;52.322;5.926;2023-01-10T03:16:26;4.80;99.90
69189;DHT22;56302;52.322;5.926;2023-01-10T03:18:58;4.70;99.90
69189;DHT22;56302;52.322;5.926;2023-01-10T03:21:27;4.70;99.90
69189;DHT22;56302;52.322;5.926;2023-01-10T03:23:55;4.70;99.90
69189;DHT22;56302;52.322;5.926;2023-01-10T03:26:28;4.70;99.90
69189;DHT22;56302;52.322;5.926;2023-01-10T03:29:00;4.70;99.90
69189;DHT22;56302;52.322;5.926;2023-01-10T03:31:30;4.70;99.90
69189;DHT22;56302;52.322;5.926;2023-01-10T03:34:00;4.60;99.90
69189;DHT22;56302;52.322;5.926;2023-01-10T03:36:57;4.70;99.90
69189;DHT22;56302;52.322;5.926;2023-01-10T03:39:51;4.70;99.90
69189;DHT22;56302;52.322;5.926;2023-01-10T03:42:28;4.70;99.90
69189;DHT22;56302;52.322;5.926;2023-01-10T03:45:20;4.70;99.90
69189;DHT22;56302;52.322;5.926;2023-01-10T03:47:49;4.70;99.90
69189;DHT22;56302;52.322;5.926;2023-01-10T03:50:21;4.70;99.90
69189;DHT22;56302;52.322;5.926;2023-01-10T03:52:47;4.80;99.90
69189;DHT22;56302;52.322;5.926;2023-01-10T03:55:15;4.80;99.90
69189;DHT22;56302;52.322;5.926;2023-01-10T03:57:43;4.80;99.90
69189;DHT22;56302;52.322;5.926;2023-01-10T04:00:12;4.90;99.90
69189;DHT22;56302;52.322;5.926;2023-01-10T04:02:38;4.90;99.90
69189;DHT22;56302;52.322;5.926;2023-01-10T04:05:04;4.90;99.90
69189;DHT22;56302;52.322;5.926;2023-01-10T04:07:30;4.90;99.90
69189;DHT22;56302;52.322;5.926;2023-01-10T04:09:55;4.90;99.90
69189;DHT22;56302;52.322;5.926;2023-01-10T04:12:21;4.90;99.90
69189;DHT22;56302;52.322;5.926;2023-01-10T04:14:47;4.90;99.90
69189;DHT22;56302;52.322;5.926;2023-01-10T04:17:13;4.90;99.90
69189;DHT22;56302;52.322;5.926;2023-01-10T04:19:40;5.00;99.90
69189;DHT22;56302;52.322;5.926;2023-01-10T04:22:06;5.00;99.90
69189;DHT22;56302;52.322;5.926;2023-01-10T04:24:32;5.00;99.90
69189;DHT22;56302;52.322;5.926;2023-01-10T04:26:57;5.00;99.90
69189;DHT22;56302;52.322;5.926;2023-01-10T04:29:23;5.00;99.90
69189;DHT22;56302;52.322;5.926;2023-01-10T04:31:49;5.00;99.90
69189;DHT22;56302;52.322;5.926;2023-01-10T04:34:15;5.00;99.90
69189;DHT22;56302;52.322;5.926;2023-01-10T04:36:40;5.10;99.90
69189;DHT22;56302;52.322;5.926;2023-01-10T04:39:07;5.10;99.90
69189;DHT22;56302;52.322;5.926;2023-01-10T04:41:32;5.10;99.90
69189;DHT22;56302;52.322;5.926;2023-01-10T04:43:58;5.10;99.90
69189;DHT22;56302;52.322;5.926;2023-01-10T04:46:24;5.10;99.90
69189;DHT22;56302;52.322;5.926;2023-01-10T04:48:49;5.10;99.90
69189;DHT22;56302;52.322;5.926;2023-01-10T04:51:15;5.10;99.90
69189;DHT22;56302;52.322;5.926;2023-01-10T04:53:40;5.10;99.90
69189;DHT22;56302;52.322;5.926;2023-01-10T04:56:08;5.20;99.90
69189;DHT22;56302;52.322;5.926;2023-01-10T04:58:35;5.20;99.90
69189;DHT22;56302;52.322;5.926;2023-01-10T05:01:12;5.20;99.90
69189;DHT22;56302;52.322;5.926;2023-01-10T05:03:38;5.20;99.90
69189;DHT22;56302;52.322;5.926;2023-01-10T05:06:04;5.20;99.90
69189;DHT22;56302;52.322;5.926;2023-01-10T05:08:30;5.20;99.90
69189;DHT22;56302;52.322;5.926;2023-01-10T05:10:55;5.20;99.90
69189;DHT22;56302;52.322;5.926;2023-01-10T05:13:21;5.20;99.90
69189;DHT22;56302;52.322;5.926;2023-01-10T05:15:46;5.20;99.90
69189;DHT22;56302;52.322;5.926;2023-01-10T05:18:12;5.20;99.90
69189;DHT22;56302;52.322;5.926;2023-01-10T05:20:37;5.10;99.90
69189;DHT22;56302;52.322;5.926;2023-01-10T05:23:03;5.10;99.90
69189;DHT22;56302;52.322;5.926;2023-01-10T05:25:28;5.10;99.90
69189;DHT22;56302;52.322;5.926;2023-01-10T05:27:54;5.00;99.90
69189;DHT22;56302;52.322;5.926;2023-01-10T05:30:19;5.00;99.90
69189;DHT22;56302;52.322;5.926;2023-01-10T05:32:45;5.00;99.90
69189;DHT22;56302;52.322;5.926;2023-01-10T05:35:11;5.00;99.90
69189;DHT22;56302;52.322;5.926;2023-01-10T05:37:37;4.90;99.90
69189;DHT22;56302;52.322;5.926;2023-01-10T05:40:03;4.90;99.90
69189;DHT22;56302;52.322;5.926;2023-01-10T05:42:28;4.90;99.90
69189;DHT22;56302;52.322;5.926;2023-01-10T05:44:54;4.80;99.90
69189;DHT22;56302;52.322;5.926;2023-01-10T05:47:19;4.80;99.90
69189;DHT22;56302;52.322;5.926;2023-01-10T05:49:45;4.80;99.90
69189;DHT22;56302;52.322;5.926;2023-01-10T05:52:10;4.70;99.90
69189;DHT22;56302;52.322;5.926;2023-01-10T05:54:36;4.70;99.90
69189;DHT22;56302;52.322;5.926;2023-01-10T05:57:01;4.60;99.90
69189;DHT22;56302;52.322;5.926;2023-01-10T05:59:27;4.60;99.90
69189;DHT22;56302;52.322;5.926;2023-01-10T06:01:52;4.50;99.90
69189;DHT22;56302;52.322;5.926;2023-01-10T06:04:18;4.50;99.90
69189;DHT22;56302;52.322;5.926;2023-01-10T06:06:43;4.50;99.90
69189;DHT22;56302;52.322;5.926;2023-01-10T06:09:09;4.50;99.90
69189;DHT22;56302;52.322;5.926;2023-01-10T06:11:34;4.50;99.90
69189;DHT22;56302;52.322;5.926;2023-01-10T06:14:03;4.50;99.90
69189;DHT22;56302;52.322;5.926;2023-01-10T06:16:29;4.40;99.90
69189;DHT22;56302;52.322;5.926;2023-01-10T06:18:55;4.40;99.90
69189;DHT22;56302;52.322;5.926;2023-01-10T06:21:20;4.40;99.90
69189;DHT22;56302;52.322;5.926;2023-01-10T06:23:46;4.40;99.90
69189;DHT22;56302;52.322;5.926;2023-01-10T06:26:12;4.50;99.90
69189;DHT22;56302;52.322;5.926;2023-01-10T06:28:37;4.50;99.90
69189;DHT22;56302;52.322;5.926;2023-01-10T06:31:06;4.60;99.90
69189;DHT22;56302;52.322;5.926;2023-01-10T06:33:31;4.60;99.90
69189;DHT22;56302;52.322;5.926;2023-01-10T06:35:57;4.70;99.90
69189;DHT22;56302;52.322;5.926;2023-01-10T06:38:22;4.70;99.90
69189;DHT22;56302;52.322;5.926;2023-01-10T06:40:48;4.70;99.90
69189;DHT22;56302;52.322;5.926;2023-01-10T06:43:13;4.80;99.90
69189;DHT22;56302;52.322;5.926;2023-01-10T06:45:39;4.80;99.90
69189;DHT22;56302;52.322;5.926;2023-01-10T06:48:05;4.80;99.90
69189;DHT22;56302;52.322;5.926;2023-01-10T06:50:30;4.80;99.90
69189;DHT22;56302;52.322;5.926;2023-01-10T06:53:01;4.90;99.90
69189;DHT22;56302;52.322;5.926;2023-01-10T06:55:27;4.90;99.90
69189;DHT22;56302;52.322;5.926;2023-01-10T06:57:58;4.90;99.90
69189;DHT22;56302;52.322;5.926;2023-01-10T07:00:24;4.90;99.90
69189;DHT22;56302;52.322;5.926;2023-01-10T07:02:52;4.90;99.90
69189;DHT22;56302;52.322;5.926;2023-01-10T07:05:19;4.90;99.90
69189;DHT22;56302;52.322;5.926;2023-01-10T07:07:44;4.90;99.90
69189;DHT22;56302;52.322;5.926;2023-01-10T07:10:10;5.00;99.90
69189;DHT22;56302;52.322;5.926;2023-01-10T07:12:36;5.00;99.90
69189;DHT22;56302;52.322;5.926;2023-01-10T07:15:01;5.00;99.90
69189;DHT22;56302;52.322;5.926;2023-01-10T07:17:28;5.00;99.90
69189;DHT22;56302;52.322;5.926;2023-01-10T07:19:53;5.00;99.90
69189;DHT22;56302;52.322;5.926;2023-01-10T07:22:19;5.00;99.90
69189;DHT22;56302;52.322;5.926;2023-01-10T07:24:45;5.00;99.90
69189;DHT22;56302;52.322;5.926;2023-01-10T07:27:10;5.00;99.90
69189;DHT22;56302;52.322;5.926;2023-01-10T07:29:36;5.00;99.90
69189;DHT22;56302;52.322;5.926;2023-01-10T07:32:01;5.00;99.90
69189;DHT22;56302;52.322;5.926;2023-01-10T07:34:27;5.00;99.90
69189;DHT22;56302;52.322;5.926;2023-01-10T07:36:52;5.10;99.90
69189;DHT22;56302;52.322;5.926;2023-01-10T07:39:18;5.10;99.90
69189;DHT22;56302;52.322;5.926;2023-01-10T07:41:46;5.10;99.90
69189;DHT22;56302;52.322;5.926;2023-01-10T07:44:11;5.10;99.90
69189;DHT22;56302;52.322;5.926;2023-01-10T07:46:37;5.10;99.90
69189;DHT22;56302;52.322;5.926;2023-01-10T07:49:02;5.10;99.90
69189;DHT22;56302;52.322;5.926;2023-01-10T07:51:28;5.10;99.90
69189;DHT22;56302;52.322;5.926;2023-01-10T07:53:53;5.10;99.90
69189;DHT22;56302;52.322;5.926;2023-01-10T07:56:19;5.10;99.90
69189;DHT22;56302;52.322;5.926;2023-01-10T07:58:44;5.10;99.90
69189;DHT22;56302;52.322;5.926;2023-01-10T08:01:11;5.10;99.90
69189;DHT22;56302;52.322;5.926;2023-01-10T08:03:36;5.10;99.90
69189;DHT22;56302;52.322;5.926;2023-01-10T08:06:04;5.20;99.90
69189;DHT22;56302;52.322;5.926;2023-01-10T08:08:31;5.20;99.90
69189;DHT22;56302;52.322;5.926;2023-01-10T08:10:57;5.20;99.90
69189;DHT22;56302;52.322;5.926;2023-01-10T08:13:24;5.20;99.90
69189;DHT22;56302;52.322;5.926;2023-01-10T08:15:50;5.20;99.90
69189;DHT22;56302;52.322;5.926;2023-01-10T08:18:17;5.20;99.90
69189;DHT22;56302;52.322;5.926;2023-01-10T08:20:43;5.20;99.90
69189;DHT22;56302;52.322;5.926;2023-01-10T08:23:11;5.20;99.90
69189;DHT22;56302;52.322;5.926;2023-01-10T08:25:36;5.20;99.90
69189;DHT22;56302;52.322;5.926;2023-01-10T08:28:02;5.30;99.90
69189;DHT22;56302;52.322;5.926;2023-01-10T08:30:27;5.30;99.90
69189;DHT22;56302;52.322;5.926;2023-01-10T08:32:53;5.30;99.90
69189;DHT22;56302;52.322;5.926;2023-01-10T08:35:19;5.30;99.90
69189;DHT22;56302;52.322;5.926;2023-01-10T08:37:44;5.30;99.90
69189;DHT22;56302;52.322;5.926;2023-01-10T08:40:10;5.30;99.90
69189;DHT22;56302;52.322;5.926;2023-01-10T08:42:36;5.30;99.90
69189;DHT22;56302;52.322;5.926;2023-01-10T08:45:01;5.30;99.90
69189;DHT22;56302;52.322;5.926;2023-01-10T08:47:28;5.30;99.90
69189;DHT22;56302;52.322;5.926;2023-01-10T08:49:53;5.40;99.90
69189;DHT22;56302;52.322;5.926;2023-01-10T08:52:19;5.40;99.90
69189;DHT22;56302;52.322;5.926;2023-01-10T08:54:45;5.40;99.90
69189;DHT22;56302;52.322;5.926;2023-01-10T08:57:10;5.40;99.90
69189;DHT22;56302;52.322;5.926;2023-01-10T08:59:36;5.40;99.90
69189;DHT22;56302;52.322;5.926;2023-01-10T09:02:01;5.50;99.90
69189;DHT22;56302;52.322;5.926;2023-01-10T09:04:29;5.50;99.90
69189;DHT22;56302;52.322;5.926;2023-01-10T09:06:55;5.50;99.90
69189;DHT22;56302;52.322;5.926;2023-01-10T09:09:20;5.50;99.90
69189;DHT22;56302;52.322;5.926;2023-01-10T09:11:46;5.50;99.90
69189;DHT22;56302;52.322;5.926;2023-01-10T09:14:11;5.50;99.90
69189;DHT22;56302;52.322;5.926;2023-01-10T09:16:38;5.50;99.90
69189;DHT22;56302;52.322;5.926;2023-01-10T09:19:03;5.50;99.90
69189;DHT22;56302;52.322;5.926;2023-01-10T09:21:29;5.50;99.90
69189;DHT22;56302;52.322;5.926;2023-01-10T09:23:54;5.60;99.90
69189;DHT22;56302;52.322;5.926;2023-01-10T09:26:20;5.60;99.90
69189;DHT22;56302;52.322;5.926;2023-01-10T09:28:45;5.60;99.90
69189;DHT22;56302;52.322;5.926;2023-01-10T09:31:11;5.60;99.90
69189;DHT22;56302;52.322;5.926;2023-01-10T09:33:38;5.60;99.90
69189;DHT22;56302;52.322;5.926;2023-01-10T09:36:05;5.60;99.90
69189;DHT22;56302;52.322;5.926;2023-01-10T09:38:31;5.60;99.90
69189;DHT22;56302;52.322;5.926;2023-01-10T09:52:17;5.70;99.90
69189;DHT22;56302;52.322;5.926;2023-01-10T09:54:46;5.70;99.90
69189;DHT22;56302;52.322;5.926;2023-01-10T09:57:15;5.70;99.90
69189;DHT22;56302;52.322;5.926;2023-01-10T09:59:42;5.70;99.90
69189;DHT22;56302;52.322;5.926;2023-01-10T10:02:40;5.70;99.90
69189;DHT22;56302;52.322;5.926;2023-01-10T10:05:26;5.70;99.90
69189;DHT22;56302;52.322;5.926;2023-01-10T10:07:55;5.70;99.90
69189;DHT22;56302;52.322;5.926;2023-01-10T10:10:38;5.70;99.90
69189;DHT22;56302;52.322;5.926;2023-01-10T10:18:27;5.70;99.90
69189;DHT22;56302;52.322;5.926;2023-01-10T10:21:04;5.70;99.90
69189;DHT22;56302;52.322;5.926;2023-01-10T10:23:40;5.80;99.90
69189;DHT22;56302;52.322;5.926;2023-01-10T10:34:12;5.80;99.90
69189;DHT22;56302;52.322;5.926;2023-01-10T10:36:59;5.80;99.90
69189;DHT22;56302;52.322;5.926;2023-01-10T10:39:53;5.80;99.90
69189;DHT22;56302;52.322;5.926;2023-01-10T10:42:20;5.80;99.90
69189;DHT22;56302;52.322;5.926;2023-01-10T10:45:03;5.80;99.90
69189;DHT22;56302;52.322;5.926;2023-01-10T10:47:33;5.80;99.90
69189;DHT22;56302;52.322;5.926;2023-01-10T10:50:14;5.80;99.90
69189;DHT22;56302;52.322;5.926;2023-01-10T10:52:43;5.80;99.90
69189;DHT22;56302;52.322;5.926;2023-01-10T10:55:17;5.80;99.90
69189;DHT22;56302;52.322;5.926;2023-01-10T10:57:45;5.80;99.90
69189;DHT22;56302;52.322;5.926;2023-01-10T11:00:18;5.80;99.70
69189;DHT22;56302;52.322;5.926;2023-01-10T11:02:50;5.90;99.60
69189;DHT22;56302;52.322;5.926;2023-01-10T11:05:20;5.90;99.50
69189;DHT22;56302;52.322;5.926;2023-01-10T11:07:48;5.90;99.50
69189;DHT22;56302;52.322;5.926;2023-01-10T11:10:22;5.80;99.10
69189;DHT22;56302;52.322;5.926;2023-01-10T11:13:29;5.80;99.10
69189;DHT22;56302;52.322;5.926;2023-01-10T11:16:04;5.90;99.10
69189;DHT22;56302;52.322;5.926;2023-01-10T11:18:31;5.80;99.00
69189;DHT22;56302;52.322;5.926;2023-01-10T11:21:10;5.80;98.80
69189;DHT22;56302;52.322;5.926;2023-01-10T11:23:39;5.80;98.70
69189;DHT22;56302;52.322;5.926;2023-01-10T11:26:27;5.80;98.60
69189;DHT22;56302;52.322;5.926;2023-01-10T11:29:15;5.80;98.50
69189;DHT22;56302;52.322;5.926;2023-01-10T11:31:42;5.80;98.40
69189;DHT22;56302;52.322;5.926;2023-01-10T11:34:20;5.80;98.40
69189;DHT22;56302;52.322;5.926;2023-01-10T11:36:53;5.80;98.40
69189;DHT22;56302;52.322;5.926;2023-01-10T11:39:20;5.80;98.40
69189;DHT22;56302;52.322;5.926;2023-01-10T11:41:45;5.80;98.20
69189;DHT22;56302;52.322;5.926;2023-01-10T11:44:24;5.70;98.10
69189;DHT22;56302;52.322;5.926;2023-01-10T11:47:00;5.70;98.00
69189;DHT22;56302;52.322;5.926;2023-01-10T11:49:33;5.70;97.90
69189;DHT22;56302;52.322;5.926;2023-01-10T11:52:06;5.70;98.00
69189;DHT22;56302;52.322;5.926;2023-01-10T11:54:39;5.70;97.80
69189;DHT22;56302;52.322;5.926;2023-01-10T11:57:15;5.80;97.90
69189;DHT22;56302;52.322;5.926;2023-01-10T12:00:03;5.80;97.90
69189;DHT22;56302;52.322;5.926;2023-01-10T12:02:35;5.70;97.80
69189;DHT22;56302;52.322;5.926;2023-01-10T12:05:03;5.80;97.80
69189;DHT22;56302;52.322;5.926;2023-01-10T12:07:31;5.70;97.70
69189;DHT22;56302;52.322;5.926;2023-01-10T12:10:21;5.80;97.70
69189;DHT22;56302;52.322;5.926;2023-01-10T12:12:58;5.70;97.60
69189;DHT22;56302;52.322;5.926;2023-01-10T12:15:28;5.70;97.70
69189;DHT22;56302;52.322;5.926;2023-01-10T12:17:57;5.80;97.50
69189;DHT22;56302;52.322;5.926;2023-01-10T12:20:25;5.70;97.30
69189;DHT22;56302;52.322;5.926;2023-01-10T12:22:58;5.70;97.30
69189;DHT22;56302;52.322;5.926;2023-01-10T12:25:39;5.70;97.10
69189;DHT22;56302;52.322;5.926;2023-01-10T12:28:17;5.70;97.00
69189;DHT22;56302;52.322;5.926;2023-01-10T12:30:45;5.70;97.20
69189;DHT22;56302;52.322;5.926;2023-01-10T12:33:17;5.70;97.30
69189;DHT22;56302;52.322;5.926;2023-01-10T12:38:32;5.70;97.30
69189;DHT22;56302;52.322;5.926;2023-01-10T12:41:26;5.70;97.00
69189;DHT22;56302;52.322;5.926;2023-01-10T12:44:21;5.70;97.30
69189;DHT22;56302;52.322;5.926;2023-01-10T12:46:50;5.70;97.30
69189;DHT22;56302;52.322;5.926;2023-01-10T12:49:33;5.70;97.30
69189;DHT22;56302;52.322;5.926;2023-01-10T12:52:04;5.70;97.20
69189;DHT22;56302;52.322;5.926;2023-01-10T12:54:31;5.70;97.10
69189;DHT22;56302;52.322;5.926;2023-01-10T12:56:59;5.70;97.20
69189;DHT22;56302;52.322;5.926;2023-01-10T12:59:45;5.70;97.10
69189;DHT22;56302;52.322;5.926;2023-01-10T13:02:17;5.70;97.00
69189;DHT22;56302;52.322;5.926;2023-01-10T13:04:45;5.70;96.90
69189;DHT22;56302;52.322;5.926;2023-01-10T13:07:14;5.70;96.90
69189;DHT22;56302;52.322;5.926;2023-01-10T13:09:41;5.70;96.70
69189;DHT22;56302;52.322;5.926;2023-01-10T13:12:15;5.70;96.70
69189;DHT22;56302;52.322;5.926;2023-01-10T13:15:09;5.70;96.70
69189;DHT22;56302;52.322;5.926;2023-01-10T13:17:43;5.60;96.50
69189;DHT22;56302;52.322;5.926;2023-01-10T13:22:46;5.70;96.30
69189;DHT22;56302;52.322;5.926;2023-01-10T13:25:24;5.70;96.20
69189;DHT22;56302;52.322;5.926;2023-01-10T13:30:40;5.60;96.30
69189;DHT22;56302;52.322;5.926;2023-01-10T13:33:18;5.70;96.30
69189;DHT22;56302;52.322;5.926;2023-01-10T13:35:45;5.70;95.80
69189;DHT22;56302;52.322;5.926;2023-01-10T13:38:26;5.70;95.50
69189;DHT22;56302;52.322;5.926;2023-01-10T13:41:04;5.70;95.60
69189;DHT22;56302;52.322;5.926;2023-01-10T13:51:29;5.70;95.60
69189;DHT22;56302;52.322;5.926;2023-01-10T13:56:41;5.80;94.80
69189;DHT22;56302;52.322;5.926;2023-01-10T14:02:25;5.80;95.20
69189;DHT22;56302;52.322;5.926;2023-01-10T14:05:16;5.80;94.90
69189;DHT22;56302;52.322;5.926;2023-01-10T14:07:47;5.80;94.90
69189;DHT22;56302;52.322;5.926;2023-01-10T14:10:30;5.80;95.10
69189;DHT22;56302;52.322;5.926;2023-01-10T14:13:03;5.80;95.10
69189;DHT22;56302;52.322;5.926;2023-01-10T14:15:41;5.80;95.20
69189;DHT22;56302;52.322;5.926;2023-01-10T14:18:24;5.80;95.40
69189;DHT22;56302;52.322;5.926;2023-01-10T14:21:05;5.80;95.10
69189;DHT22;56302;52.322;5.926;2023-01-10T14:23:42;5.80;94.90
69189;DHT22;56302;52.322;5.926;2023-01-10T14:26:21;5.90;94.60
69189;DHT22;56302;52.322;5.926;2023-01-10T14:28:50;5.90;94.50
69189;DHT22;56302;52.322;5.926;2023-01-10T14:31:21;5.90;95.00
69189;DHT22;56302;52.322;5.926;2023-01-10T14:33:47;5.90;94.60
69189;DHT22;56302;52.322;5.926;2023-01-10T14:36:20;5.90;94.40
69189;DHT22;56302;52.322;5.926;2023-01-10T14:38:49;5.90;94.30
69189;DHT22;56302;52.322;5.926;2023-01-10T14:41:41;5.90;94.10
69189;DHT22;56302;52.322;5.926;2023-01-10T14:44:29;5.90;93.90
69189;DHT22;56302;52.322;5.926;2023-01-10T14:46:55;5.90;93.90
69189;DHT22;56302;52.322;5.926;2023-01-10T14:49:26;5.90;94.00
69189;DHT22;56302;52.322;5.926;2023-01-10T14:51:54;6.00;94.20
69189;DHT22;56302;52.322;5.926;2023-01-10T14:54:26;6.00;94.20
69189;DHT22;56302;52.322;5.926;2023-01-10T14:56:54;6.00;94.00
69189;DHT22;56302;52.322;5.926;2023-01-10T14:59:29;6.00;94.00
69189;DHT22;56302;52.322;5.926;2023-01-10T15:02:00;6.00;93.70
69189;DHT22;56302;52.322;5.926;2023-01-10T15:04:30;6.00;94.00
69189;DHT22;56302;52.322;5.926;2023-01-10T15:07:13;6.00;94.20
69189;DHT22;56302;52.322;5.926;2023-01-10T15:09:46;6.00;94.50
69189;DHT22;56302;52.322;5.926;2023-01-10T15:12:14;6.00;94.80
69189;DHT22;56302;52.322;5.926;2023-01-10T15:14:41;6.00;95.00
69189;DHT22;56302;52.322;5.926;2023-01-10T15:17:12;5.90;95.50
69189;DHT22;56302;52.322;5.926;2023-01-10T15:19:43;5.90;95.80
69189;DHT22;56302;52.322;5.926;2023-01-10T15:24:58;5.80;96.90
69189;DHT22;56302;52.322;5.926;2023-01-10T15:27:24;5.80;97.40
69189;DHT22;56302;52.322;5.926;2023-01-10T15:29:50;5.80;97.70
69189;DHT22;56302;52.322;5.926;2023-01-10T15:32:30;5.80;98.10
69189;DHT22;56302;52.322;5.926;2023-01-10T15:34:57;5.80;98.30
69189;DHT22;56302;52.322;5.926;2023-01-10T15:37:26;5.80;98.50
69189;DHT22;56302;52.322;5.926;2023-01-10T15:39:53;5.70;98.80
69189;DHT22;56302;52.322;5.926;2023-01-10T15:42:20;5.70;99.00
69189;DHT22;56302;52.322;5.926;2023-01-10T15:44:48;5.70;99.30
69189;DHT22;56302;52.322;5.926;2023-01-10T15:50:32;5.70;99.70
69189;DHT22;56302;52.322;5.926;2023-01-10T15:53:06;5.70;99.80
69189;DHT22;56302;52.322;5.926;2023-01-10T15:58:28;5.70;99.90
69189;DHT22;56302;52.322;5.926;2023-01-10T16:00:56;5.70;99.90
69189;DHT22;56302;52.322;5.926;2023-01-10T16:05:57;5.60;99.90
69189;DHT22;56302;52.322;5.926;2023-01-10T16:08:31;5.60;99.90
69189;DHT22;56302;52.322;5.926;2023-01-10T16:10:59;5.70;99.90
69189;DHT22;56302;52.322;5.926;2023-01-10T16:13:25;5.70;99.90
69189;DHT22;56302;52.322;5.926;2023-01-10T16:15:51;5.70;99.90
69189;DHT22;56302;52.322;5.926;2023-01-10T16:18:17;5.70;99.90
69189;DHT22;56302;52.322;5.926;2023-01-10T16:20:43;5.60;99.90
69189;DHT22;56302;52.322;5.926;2023-01-10T16:23:18;5.60;99.90
69189;DHT22;56302;52.322;5.926;2023-01-10T16:25:46;5.70;99.90
69189;DHT22;56302;52.322;5.926;2023-01-10T16:28:16;5.70;99.90
69189;DHT22;56302;52.322;5.926;2023-01-10T16:30:42;5.60;99.90
69189;DHT22;56302;52.322;5.926;2023-01-10T16:33:24;5.60;99.90
69189;DHT22;56302;52.322;5.926;2023-01-10T16:35:54;5.70;99.90
69189;DHT22;56302;52.322;5.926;2023-01-10T16:38:21;5.60;99.90
69189;DHT22;56302;52.322;5.926;2023-01-10T16:41:00;5.70;99.90
69189;DHT22;56302;52.322;5.926;2023-01-10T16:43:47;5.60;99.90
69189;DHT22;56302;52.322;5.926;2023-01-10T16:46:12;5.60;99.90
69189;DHT22;56302;52.322;5.926;2023-01-10T16:48:38;5.60;99.90
69189;DHT22;56302;52.322;5.926;2023-01-10T16:51:27;5.60;99.90
69189;DHT22;56302;52.322;5.926;2023-01-10T16:53:54;5.60;99.90
69189;DHT22;56302;52.322;5.926;2023-01-10T16:56:22;5.60;99.90
69189;DHT22;56302;52.322;5.926;2023-01-10T16:58:50;5.60;99.90
69189;DHT22;56302;52.322;5.926;2023-01-10T17:01:25;5.60;99.90
69189;DHT22;56302;52.322;5.926;2023-01-10T17:03:53;5.50;99.90
69189;DHT22;56302;52.322;5.926;2023-01-10T17:06:19;5.60;99.90
69189;DHT22;56302;52.322;5.926;2023-01-10T17:08:45;5.60;99.90
69189;DHT22;56302;52.322;5.926;2023-01-10T17:11:15;5.50;99.90
69189;DHT22;56302;52.322;5.926;2023-01-10T17:13:43;5.60;99.90
69189;DHT22;56302;52.322;5.926;2023-01-10T17:16:09;5.50;99.90
69189;DHT22;56302;52.322;5.926;2023-01-10T17:18:34;5.50;99.90
69189;DHT22;56302;52.322;5.926;2023-01-10T17:21:00;5.50;99.90
69189;DHT22;56302;52.322;5.926;2023-01-10T17:23:26;5.50;99.90
69189;DHT22;56302;52.322;5.926;2023-01-10T17:25:58;5.60;99.90
69189;DHT22;56302;52.322;5.926;2023-01-10T17:28:23;5.60;99.90
69189;DHT22;56302;52.322;5.926;2023-01-10T17:30:50;5.50;99.90